Buoy 13516

sailwx.info

Track history (hours):
 
Tides and Currents Weather Stations Pressure Air Temp Water Temp Dewpoint Dewpoint Depression Visibility Wind Speed Wind Dir Waves Ship Positions

Ao Chao Yang 13516

Last reported at 2018-Mar-23 14:41 UTC. Time now 2018-Apr-23 17:35 UTC.
Position N 24°16' W 065°48'.
Warning: this ship's position is 31 days out of date.

Length 20 m.

Type: Fishing. MMSI: 412469022.

Water temperature 24.6 ° C

Date/timePositionNaut miles runAvg speedWind from/ knotsBaromVisibWave heightAir tempDewpointWater temp
2018-Mar-23 14:41N 24°16' W 065°48'40 2.2 24.6
2018-Mar-22 20:24N 23°58' W 066°27'0 0.0
2018-Mar-21 12:07N 23°58' W 066°27'0 0.0
2018-Mar-20 23:10N 23°58' W 066°27'1 1.1 24.8
2018-Mar-20 21:58N 23°57' W 066°28'1 1.4
2018-Mar-20 21:33N 23°56' W 066°28'1 0.6 25.0
2018-Mar-20 19:17N 23°55' W 066°28'642.6
2018-Mar-20 19:09N 23°52' W 066°33'0 0.0
2018-Mar-20 03:13N 23°52' W 066°33'1 0.8 28.0
2018-Mar-20 02:32N 23°52' W 066°34'1 0.6 24.9
2018-Mar-20 01:40N 23°52' W 066°34'0 0.0 25.1
2018-Mar-20 01:32N 23°52' W 066°34'0 0.0 25.1
2018-Mar-20 00:56N 23°52' W 066°34'112.0 25.2
2018-Mar-20 00:53N 23°51' W 066°34'0 0.0 25.2
2018-Mar-20 00:50N 23°51' W 066°34'0 0.0 25.2
2018-Mar-20 00:10N 23°51' W 066°34'0 0.0 25.2
2018-Mar-19 23:56N 23°51' W 066°34'0 0.0 25.3
2018-Mar-19 23:47N 23°51' W 066°34'110.7 25.3
2018-Mar-19 23:40N 23°50' W 066°35'0 0.0 25.3
2018-Mar-19 22:35N 23°50' W 066°35'1 3.6 25.4
2018-Mar-19 22:25N 23°51' W 066°35'0 0.0 25.5
2018-Mar-19 22:13N 23°51' W 066°35'1 6.0 25.5
2018-Mar-19 22:07N 23°50' W 066°35'0 0.0 25.5
2018-Mar-19 22:02N 23°50' W 066°35'0 0.0 25.5
2018-Mar-19 21:08N 23°50' W 066°35'111.0 25.8
2018-Mar-19 21:05N 23°50' W 066°36'0 0.0 25.8
2018-Mar-19 20:50N 23°50' W 066°36'0 0.0 25.9
2018-Mar-19 19:28N 23°50' W 066°36'216.5 26.4
2018-Mar-19 19:22N 23°50' W 066°38'1 0.2 26.4
2018-Mar-19 15:58N 23°50' W 066°38'0 0.0 25.4
2018-Mar-19 15:19N 23°50' W 066°38'111.0 25.2
2018-Mar-19 15:13N 23°50' W 066°39'0 0.0 25.1
2018-Mar-19 14:22N 23°50' W 066°39'1 6.0
2018-Mar-19 14:16N 23°50' W 066°39'1 1.4
2018-Mar-19 13:41N 23°50' W 066°40'1 8.1
2018-Mar-19 13:35N 23°49' W 066°40'0 0.0
2018-Mar-19 12:55N 23°49' W 066°40'0 0.0
2018-Mar-19 12:34N 23°49' W 066°40'0 0.0
2018-Mar-19 12:32N 23°49' W 066°40'6 0.6
2018-Mar-19 02:52N 23°44' W 066°42'1 0.7
2018-Mar-19 01:57N 23°44' W 066°42'0 0.0 24.7
2018-Mar-19 01:54N 23°44' W 066°42'1 9.8 24.7
2018-Mar-19 01:49N 23°44' W 066°41'0 0.0
2018-Mar-19 01:43N 23°44' W 066°41'1 1.0 24.7
2018-Mar-19 01:09N 23°44' W 066°42'0 0.0 24.7
2018-Mar-19 00:16N 23°44' W 066°42'0 0.0
2018-Mar-19 00:13N 23°44' W 066°42'0 0.0 24.8
2018-Mar-19 00:12N 23°44' W 066°42'0 0.0 24.8
2018-Mar-19 00:07N 23°44' W 066°42'0 0.0 24.8
2018-Mar-18 23:57N 23°44' W 066°42'0 0.0 24.8
2018-Mar-18 23:00N 23°44' W 066°42'1 1.1 25.1
2018-Mar-18 22:31N 23°44' W 066°43'111.0 25.1
2018-Mar-18 22:28N 23°44' W 066°42'0 0.0 25.2
2018-Mar-18 22:25N 23°44' W 066°42'0 0.0 25.2
2018-Mar-18 21:16N 23°44' W 066°42'0 0.0 25.6
2018-Mar-18 21:13N 23°44' W 066°42'1 1.8 25.6
2018-Mar-18 20:55N 23°44' W 066°43'0 0.0 25.7
2018-Mar-18 19:42N 23°44' W 066°43'0 0.0 26.2
2018-Mar-18 19:31N 23°44' W 066°43'1 0.2 26.2
2018-Mar-18 15:42N 23°43' W 066°43'1 6.0 26.1
2018-Mar-18 15:36N 23°43' W 066°43'0 0.0 26.1
2018-Mar-18 14:46N 23°43' W 066°43'0 0.0 25.4
2018-Mar-18 14:39N 23°43' W 066°43'0 0.0 25.4
2018-Mar-18 14:24N 23°43' W 066°43'0 0.0 25.2
2018-Mar-18 14:01N 23°43' W 066°43'1 3.6 24.9
2018-Mar-18 13:51N 23°42' W 066°43'0 0.0
2018-Mar-18 13:04N 23°42' W 066°43'0 0.0
2018-Mar-18 13:01N 23°42' W 066°43'0 0.0
2018-Mar-18 12:45N 23°42' W 066°43'779.2
2018-Mar-18 12:40N 23°36' W 066°40'2 0.1
2018-Mar-18 00:15N 23°35' W 066°38'1 0.5 24.7
2018-Mar-17 23:09N 23°34' W 066°38'1 4.9 24.7
2018-Mar-17 22:59N 23°34' W 066°38'0 0.0
2018-Mar-17 22:35N 23°34' W 066°38'1 0.7 24.7
2018-Mar-17 21:29N 23°33' W 066°37'112.0 24.7
2018-Mar-17 21:26N 23°34' W 066°37'1 0.8
2018-Mar-17 19:49N 23°33' W 066°36'321.1 24.7
2018-Mar-17 19:41N 23°32' W 066°33'0 0.0
2018-Mar-17 18:07N 23°32' W 066°33'1 0.2
2018-Mar-17 14:57N 23°32' W 066°32'1 0.8
2018-Mar-17 13:18N 23°33' W 066°31'0 0.0
2018-Mar-17 12:57N 23°33' W 066°31'1 0.1
2018-Mar-17 09:01N 23°33' W 066°31'1 1.8
2018-Mar-17 08:34N 23°32' W 066°30'1 0.5
2018-Mar-17 06:46N 23°33' W 066°29'0 0.0 24.5
2018-Mar-17 02:40N 23°33' W 066°29'1 5.5 24.5
2018-Mar-17 02:34N 23°33' W 066°29'0 0.0 24.5
2018-Mar-17 01:56N 23°33' W 066°29'1 5.5 24.5
2018-Mar-17 01:50N 23°33' W 066°29'0 0.0 24.5
2018-Mar-17 00:55N 23°33' W 066°29'0 0.0 24.5
2018-Mar-17 00:53N 23°33' W 066°29'0 0.0 24.5
2018-Mar-17 00:31N 23°33' W 066°29'1 4.0 24.5
2018-Mar-17 00:22N 23°32' W 066°29'0 0.0 24.5
2018-Mar-17 00:13N 23°32' W 066°29'0 0.0
2018-Mar-17 00:10N 23°32' W 066°29'0 0.0
2018-Mar-16 23:46N 23°32' W 066°29'0 0.0 24.6
2018-Mar-16 23:40N 23°32' W 066°29'1 6.6 24.6
2018-Mar-16 23:35N 23°32' W 066°29'1 0.7 24.6
2018-Mar-16 22:49N 23°32' W 066°29'0 0.0 24.6
2018-Mar-16 22:43N 23°32' W 066°29'1 1.4 24.6
2018-Mar-16 22:07N 23°32' W 066°29'0 0.0 24.6
2018-Mar-16 22:01N 23°32' W 066°29'0 0.0 24.6
2018-Mar-16 21:43N 23°32' W 066°29'1 0.4 24.6
2018-Mar-16 20:04N 23°31' W 066°29'111.0 24.6
2018-Mar-16 19:58N 23°31' W 066°28'1 0.4 24.6
2018-Mar-16 18:20N 23°31' W 066°28'1 0.2 24.6
2018-Mar-16 14:46N 23°30' W 066°28'1 0.5 24.5
2018-Mar-16 13:38N 23°30' W 066°27'1 1.0
2018-Mar-16 13:06N 23°30' W 066°28'1 5.5 24.6
2018-Mar-16 13:00N 23°30' W 066°27'1 0.7
2018-Mar-16 11:22N 23°29' W 066°27'1 9.0
2018-Mar-16 11:18N 23°29' W 066°27'1 1.3
2018-Mar-16 10:18N 23°28' W 066°26'0 0.0
2018-Mar-16 09:36N 23°28' W 066°26'0 0.0
2018-Mar-16 08:40N 23°28' W 066°26'230.6
2018-Mar-16 08:36N 23°27' W 066°25'0 0.0
2018-Mar-16 07:01N 23°27' W 066°25'3 0.8
2018-Mar-16 02:58N 23°26' W 066°21'0 0.0
2018-Mar-16 02:55N 23°26' W 066°21'0 0.0
2018-Mar-16 02:13N 23°26' W 066°21'0 0.0 24.6
2018-Mar-16 01:16N 23°26' W 066°21'122.0
2018-Mar-16 01:13N 23°26' W 066°20'0 0.0
2018-Mar-16 00:35N 23°26' W 066°20'0 0.0 24.6
2018-Mar-16 00:29N 23°26' W 066°20'0 0.0
2018-Mar-16 00:06N 23°26' W 066°20'1 2.2 24.6
2018-Mar-15 23:36N 23°26' W 066°19'0 0.0
2018-Mar-15 23:00N 23°26' W 066°19'1 6.0 24.6
2018-Mar-15 22:54N 23°27' W 066°19'1 1.9 24.6
2018-Mar-15 22:35N 23°26' W 066°19'122.0 24.6
2018-Mar-15 22:32N 23°26' W 066°17'0 0.0
2018-Mar-15 22:30N 23°26' W 066°17'1 1.9 24.6
2018-Mar-15 21:48N 23°28' W 066°17'0 0.0 24.6
2018-Mar-15 20:50N 23°28' W 066°17'0 0.0 24.6
2018-Mar-15 20:44N 23°28' W 066°17'0 0.0
2018-Mar-15 20:14N 23°28' W 066°17'111.0
2018-Mar-15 20:11N 23°28' W 066°16'124.0 24.6
2018-Mar-15 20:08N 23°29' W 066°16'0 0.0 24.6
2018-Mar-15 18:33N 23°29' W 066°16'3 1.1 24.6
2018-Mar-15 15:42N 23°32' W 066°16'1 1.1 24.6
2018-Mar-15 14:57N 23°32' W 066°16'1 1.5
2018-Mar-15 14:06N 23°33' W 066°17'1 3.7 24.5
2018-Mar-15 13:57N 23°33' W 066°17'0 0.0 24.5
2018-Mar-15 13:23N 23°33' W 066°17'0 0.0 24.5
2018-Mar-15 13:18N 23°33' W 066°17'1 6.0 24.5
2018-Mar-15 13:12N 23°34' W 066°17'0 0.0 24.5
2018-Mar-15 12:59N 23°34' W 066°17'1 1.3 24.5
2018-Mar-15 12:22N 23°33' W 066°17'0 0.0 24.5
2018-Mar-15 12:19N 23°33' W 066°17'0 0.0 24.5
2018-Mar-15 11:46N 23°33' W 066°17'0 0.0 24.5
2018-Mar-15 11:39N 23°33' W 066°17'0 0.0 24.5
2018-Mar-15 11:33N 23°33' W 066°17'0 0.0 24.5
2018-Mar-15 11:19N 23°33' W 066°17'1 1.0 24.5
2018-Mar-15 10:30N 23°32' W 066°18'0 0.0
2018-Mar-15 10:10N 23°32' W 066°18'0 0.0 24.5
2018-Mar-15 10:03N 23°32' W 066°18'0 0.0 24.5
2018-Mar-15 09:39N 23°32' W 066°18'0 0.0
2018-Mar-15 08:58N 23°32' W 066°18'0 0.0
2018-Mar-15 08:52N 23°32' W 066°18'111.0 24.5
2018-Mar-15 08:49N 23°32' W 066°17'1 1.7
2018-Mar-15 08:30N 23°32' W 066°18'1 0.5 24.5
2018-Mar-15 07:13N 23°32' W 066°18'224.0 24.5
2018-Mar-15 07:07N 23°29' W 066°18'0 0.0 24.5
2018-Mar-15 03:18N 23°29' W 066°18'0 0.0 24.5
2018-Mar-15 03:15N 23°29' W 066°18'0 0.0 24.5
2018-Mar-15 02:39N 23°29' W 066°18'1 3.7 24.6
2018-Mar-15 02:30N 23°29' W 066°17'0 0.0 24.6
2018-Mar-15 01:40N 23°29' W 066°17'1 9.0 24.6
2018-Mar-15 01:36N 23°29' W 066°17'0 0.0 24.6
2018-Mar-15 00:58N 23°29' W 066°17'0 0.0
2018-Mar-15 00:57N 23°29' W 066°17'0 0.0 24.6
2018-Mar-15 00:51N 23°29' W 066°17'0 0.0 24.6
2018-Mar-15 00:34N 23°29' W 066°17'0 0.0 24.6
2018-Mar-14 23:58N 23°29' W 066°17'0 0.0 24.6
2018-Mar-14 23:54N 23°29' W 066°17'0 0.0 24.6
2018-Mar-14 23:07N 23°29' W 066°17'0 0.0 24.6
2018-Mar-14 23:04N 23°29' W 066°17'0 0.0
2018-Mar-14 23:03N 23°29' W 066°17'1 6.8 24.6
2018-Mar-14 22:52N 23°28' W 066°19'232.6 24.6
2018-Mar-14 22:49N 23°27' W 066°17'0 0.0 24.6
2018-Mar-14 21:22N 23°27' W 066°17'0 0.0 24.6
2018-Mar-14 21:16N 23°27' W 066°17'1 5.5 24.6
2018-Mar-14 21:10N 23°27' W 066°17'0 0.0 24.6
2018-Mar-14 20:22N 23°27' W 066°17'0 0.0 24.7
2018-Mar-14 20:19N 23°27' W 066°17'1 0.8 24.7
2018-Mar-14 18:45N 23°26' W 066°17'1 8.8 24.7
2018-Mar-14 18:36N 23°25' W 066°17'0 0.0 24.7
2018-Mar-14 16:03N 23°25' W 066°17'0 0.0 24.6
2018-Mar-14 15:22N 23°25' W 066°17'0 0.0 24.6
2018-Mar-14 14:28N 23°25' W 066°17'1 8.1 24.5
2018-Mar-14 14:22N 23°24' W 066°16'0 0.0 24.5
2018-Mar-14 13:47N 23°24' W 066°16'0 0.0 24.5
2018-Mar-14 13:38N 23°24' W 066°16'1 6.0 24.5
2018-Mar-14 13:32N 23°25' W 066°16'1 5.5 24.5
2018-Mar-14 13:26N 23°25' W 066°16'0 0.0 24.5
2018-Mar-14 12:47N 23°25' W 066°16'0 0.0 24.5
2018-Mar-14 12:44N 23°25' W 066°16'1 5.5 24.5
2018-Mar-14 12:38N 23°25' W 066°15'0 0.0 24.5
2018-Mar-14 11:53N 23°25' W 066°15'0 0.0 24.5
2018-Mar-14 11:49N 23°25' W 066°15'0 0.0 24.5
2018-Mar-14 11:46N 23°25' W 066°15'0 0.0 24.5
2018-Mar-14 10:38N 23°25' W 066°15'0 0.0 24.5
2018-Mar-14 10:34N 23°25' W 066°15'1 1.8 24.5
2018-Mar-14 10:07N 23°24' W 066°14'0 0.0 24.5
2018-Mar-14 09:10N 23°24' W 066°14'0 0.0 24.4
2018-Mar-14 09:07N 23°24' W 066°14'1 3.0 24.4
2018-Mar-14 08:56N 23°24' W 066°15'111.0 24.4
2018-Mar-14 08:53N 23°24' W 066°14'0 0.0 24.4
2018-Mar-14 07:28N 23°24' W 066°14'1 6.1 24.5
2018-Mar-14 07:20N 23°23' W 066°14'0 0.0 24.5
2018-Mar-14 02:59N 23°23' W 066°14'1 3.6 24.5
2018-Mar-14 02:49N 23°23' W 066°14'0 0.0 24.5
2018-Mar-14 02:02N 23°23' W 066°14'1 5.5 24.5
2018-Mar-14 01:56N 23°23' W 066°13'0 0.0 24.5
2018-Mar-14 01:11N 23°23' W 066°13'0 0.0 24.5
2018-Mar-14 01:04N 23°23' W 066°13'0 0.0 24.5
2018-Mar-14 00:22N 23°23' W 066°13'0 0.0 24.5
2018-Mar-14 00:16N 23°23' W 066°13'0 0.0 24.5
2018-Mar-13 23:34N 23°23' W 066°13'0 0.0 24.5
2018-Mar-13 23:25N 23°23' W 066°13'1 4.1 24.5
2018-Mar-13 23:17N 23°23' W 066°13'1 0.4 24.5
2018-Mar-13 21:52N 23°23' W 066°13'1 4.1 24.7
2018-Mar-13 21:44N 23°23' W 066°13'0 0.0 24.7
2018-Mar-13 21:38N 23°23' W 066°13'1 0.6 24.7
2018-Mar-13 20:37N 23°22' W 066°13'0 0.0
2018-Mar-13 20:35N 23°22' W 066°13'0 0.0 24.8
2018-Mar-13 20:29N 23°22' W 066°13'1 0.4 24.8
2018-Mar-13 18:58N 23°22' W 066°13'0 0.0 24.8
2018-Mar-13 18:52N 23°22' W 066°13'1 0.3 24.8
2018-Mar-13 15:41N 23°22' W 066°13'1 1.0 24.8
2018-Mar-13 14:50N 23°21' W 066°13'0 0.0 24.7
2018-Mar-13 14:49N 23°21' W 066°13'0 0.0 24.7
2018-Mar-13 14:44N 23°21' W 066°13'   24.7
Track history (hours):
 
Tides and Currents Weather Stations Pressure Air Temp Water Temp Dewpoint Dewpoint Depression Visibility Wind Speed Wind Dir Waves Ship Positions

Ao Chao Yang 13516

Last reported at 2018-Mar-23 14:41 UTC. Time now 2018-Apr-23 17:35 UTC.
Position N 24°16' W 065°48'.
Warning: this ship's position is 31 days out of date.

Length 20 m.

Type: Fishing. MMSI: 412469022.

Water temperature 24.6 ° C

Date/timePositionNaut miles runAvg speedWind from/ knotsBaromVisibWave heightAir tempDewpointWater temp
2018-Mar-23 14:41N 24°16' W 065°48'40 2.2 24.6
2018-Mar-22 20:24N 23°58' W 066°27'0 0.0
2018-Mar-21 12:07N 23°58' W 066°27'0 0.0
2018-Mar-20 23:10N 23°58' W 066°27'1 1.1 24.8
2018-Mar-20 21:58N 23°57' W 066°28'1 1.4
2018-Mar-20 21:33N 23°56' W 066°28'1 0.6 25.0
2018-Mar-20 19:17N 23°55' W 066°28'642.6
2018-Mar-20 19:09N 23°52' W 066°33'0 0.0
2018-Mar-20 03:13N 23°52' W 066°33'1 0.8 28.0
2018-Mar-20 02:32N 23°52' W 066°34'1 0.6 24.9
2018-Mar-20 01:40N 23°52' W 066°34'0 0.0 25.1
2018-Mar-20 01:32N 23°52' W 066°34'0 0.0 25.1
2018-Mar-20 00:56N 23°52' W 066°34'112.0 25.2
2018-Mar-20 00:53N 23°51' W 066°34'0 0.0 25.2
2018-Mar-20 00:50N 23°51' W 066°34'0 0.0 25.2
2018-Mar-20 00:10N 23°51' W 066°34'0 0.0 25.2
2018-Mar-19 23:56N 23°51' W 066°34'0 0.0 25.3
2018-Mar-19 23:47N 23°51' W 066°34'110.7 25.3
2018-Mar-19 23:40N 23°50' W 066°35'0 0.0 25.3
2018-Mar-19 22:35N 23°50' W 066°35'1 3.6 25.4
2018-Mar-19 22:25N 23°51' W 066°35'0 0.0 25.5
2018-Mar-19 22:13N 23°51' W 066°35'1 6.0 25.5
2018-Mar-19 22:07N 23°50' W 066°35'0 0.0 25.5
2018-Mar-19 22:02N 23°50' W 066°35'0 0.0 25.5
2018-Mar-19 21:08N 23°50' W 066°35'111.0 25.8
2018-Mar-19 21:05N 23°50' W 066°36'0 0.0 25.8
2018-Mar-19 20:50N 23°50' W 066°36'0 0.0 25.9
2018-Mar-19 19:28N 23°50' W 066°36'216.5 26.4
2018-Mar-19 19:22N 23°50' W 066°38'1 0.2 26.4
2018-Mar-19 15:58N 23°50' W 066°38'0 0.0 25.4
2018-Mar-19 15:19N 23°50' W 066°38'111.0 25.2
2018-Mar-19 15:13N 23°50' W 066°39'0 0.0 25.1
2018-Mar-19 14:22N 23°50' W 066°39'1 6.0
2018-Mar-19 14:16N 23°50' W 066°39'1 1.4
2018-Mar-19 13:41N 23°50' W 066°40'1 8.1
2018-Mar-19 13:35N 23°49' W 066°40'0 0.0
2018-Mar-19 12:55N 23°49' W 066°40'0 0.0
2018-Mar-19 12:34N 23°49' W 066°40'0 0.0
2018-Mar-19 12:32N 23°49' W 066°40'6 0.6
2018-Mar-19 02:52N 23°44' W 066°42'1 0.7
2018-Mar-19 01:57N 23°44' W 066°42'0 0.0 24.7
2018-Mar-19 01:54N 23°44' W 066°42'1 9.8 24.7
2018-Mar-19 01:49N 23°44' W 066°41'0 0.0
2018-Mar-19 01:43N 23°44' W 066°41'1 1.0 24.7
2018-Mar-19 01:09N 23°44' W 066°42'0 0.0 24.7
2018-Mar-19 00:16N 23°44' W 066°42'0 0.0
2018-Mar-19 00:13N 23°44' W 066°42'0 0.0 24.8
2018-Mar-19 00:12N 23°44' W 066°42'0 0.0 24.8
2018-Mar-19 00:07N 23°44' W 066°42'0 0.0 24.8
2018-Mar-18 23:57N 23°44' W 066°42'0 0.0 24.8
2018-Mar-18 23:00N 23°44' W 066°42'1 1.1 25.1
2018-Mar-18 22:31N 23°44' W 066°43'111.0 25.1
2018-Mar-18 22:28N 23°44' W 066°42'0 0.0 25.2
2018-Mar-18 22:25N 23°44' W 066°42'0 0.0 25.2
2018-Mar-18 21:16N 23°44' W 066°42'0 0.0 25.6
2018-Mar-18 21:13N 23°44' W 066°42'1 1.8 25.6
2018-Mar-18 20:55N 23°44' W 066°43'0 0.0 25.7
2018-Mar-18 19:42N 23°44' W 066°43'0 0.0 26.2
2018-Mar-18 19:31N 23°44' W 066°43'1 0.2 26.2
2018-Mar-18 15:42N 23°43' W 066°43'1 6.0 26.1
2018-Mar-18 15:36N 23°43' W 066°43'0 0.0 26.1
2018-Mar-18 14:46N 23°43' W 066°43'0 0.0 25.4
2018-Mar-18 14:39N 23°43' W 066°43'0 0.0 25.4
2018-Mar-18 14:24N 23°43' W 066°43'0 0.0 25.2
2018-Mar-18 14:01N 23°43' W 066°43'1 3.6 24.9
2018-Mar-18 13:51N 23°42' W 066°43'0 0.0
2018-Mar-18 13:04N 23°42' W 066°43'0 0.0
2018-Mar-18 13:01N 23°42' W 066°43'0 0.0
2018-Mar-18 12:45N 23°42' W 066°43'779.2
2018-Mar-18 12:40N 23°36' W 066°40'2 0.1
2018-Mar-18 00:15N 23°35' W 066°38'1 0.5 24.7
2018-Mar-17 23:09N 23°34' W 066°38'1 4.9 24.7
2018-Mar-17 22:59N 23°34' W 066°38'0 0.0
2018-Mar-17 22:35N 23°34' W 066°38'1 0.7 24.7
2018-Mar-17 21:29N 23°33' W 066°37'112.0 24.7
2018-Mar-17 21:26N 23°34' W 066°37'1 0.8
2018-Mar-17 19:49N 23°33' W 066°36'321.1 24.7
2018-Mar-17 19:41N 23°32' W 066°33'0 0.0
2018-Mar-17 18:07N 23°32' W 066°33'1 0.2
2018-Mar-17 14:57N 23°32' W 066°32'1 0.8
2018-Mar-17 13:18N 23°33' W 066°31'0 0.0
2018-Mar-17 12:57N 23°33' W 066°31'1 0.1
2018-Mar-17 09:01N 23°33' W 066°31'1 1.8
2018-Mar-17 08:34N 23°32' W 066°30'1 0.5
2018-Mar-17 06:46N 23°33' W 066°29'0 0.0 24.5
2018-Mar-17 02:40N 23°33' W 066°29'1 5.5 24.5
2018-Mar-17 02:34N 23°33' W 066°29'0 0.0 24.5
2018-Mar-17 01:56N 23°33' W 066°29'1 5.5 24.5
2018-Mar-17 01:50N 23°33' W 066°29'0 0.0 24.5
2018-Mar-17 00:55N 23°33' W 066°29'0 0.0 24.5
2018-Mar-17 00:53N 23°33' W 066°29'0 0.0 24.5
2018-Mar-17 00:31N 23°33' W 066°29'1 4.0 24.5
2018-Mar-17 00:22N 23°32' W 066°29'0 0.0 24.5
2018-Mar-17 00:13N 23°32' W 066°29'0 0.0
2018-Mar-17 00:10N 23°32' W 066°29'0 0.0
2018-Mar-16 23:46N 23°32' W 066°29'0 0.0 24.6
2018-Mar-16 23:40N 23°32' W 066°29'1 6.6 24.6
2018-Mar-16 23:35N 23°32' W 066°29'1 0.7 24.6
2018-Mar-16 22:49N 23°32' W 066°29'0 0.0 24.6
2018-Mar-16 22:43N 23°32' W 066°29'1 1.4 24.6
2018-Mar-16 22:07N 23°32' W 066°29'0 0.0 24.6
2018-Mar-16 22:01N 23°32' W 066°29'0 0.0 24.6
2018-Mar-16 21:43N 23°32' W 066°29'1 0.4 24.6
2018-Mar-16 20:04N 23°31' W 066°29'111.0 24.6
2018-Mar-16 19:58N 23°31' W 066°28'1 0.4 24.6
2018-Mar-16 18:20N 23°31' W 066°28'1 0.2 24.6
2018-Mar-16 14:46N 23°30' W 066°28'1 0.5 24.5
2018-Mar-16 13:38N 23°30' W 066°27'1 1.0
2018-Mar-16 13:06N 23°30' W 066°28'1 5.5 24.6
2018-Mar-16 13:00N 23°30' W 066°27'1 0.7
2018-Mar-16 11:22N 23°29' W 066°27'1 9.0
2018-Mar-16 11:18N 23°29' W 066°27'1 1.3
2018-Mar-16 10:18N 23°28' W 066°26'0 0.0
2018-Mar-16 09:36N 23°28' W 066°26'0 0.0
2018-Mar-16 08:40N 23°28' W 066°26'230.6
2018-Mar-16 08:36N 23°27' W 066°25'0 0.0
2018-Mar-16 07:01N 23°27' W 066°25'3 0.8
2018-Mar-16 02:58N 23°26' W 066°21'0 0.0
2018-Mar-16 02:55N 23°26' W 066°21'0 0.0
2018-Mar-16 02:13N 23°26' W 066°21'0 0.0 24.6
2018-Mar-16 01:16N 23°26' W 066°21'122.0
2018-Mar-16 01:13N 23°26' W 066°20'0 0.0
2018-Mar-16 00:35N 23°26' W 066°20'0 0.0 24.6
2018-Mar-16 00:29N 23°26' W 066°20'0 0.0
2018-Mar-16 00:06N 23°26' W 066°20'1 2.2 24.6
2018-Mar-15 23:36N 23°26' W 066°19'0 0.0
2018-Mar-15 23:00N 23°26' W 066°19'1 6.0 24.6
2018-Mar-15 22:54N 23°27' W 066°19'1 1.9 24.6
2018-Mar-15 22:35N 23°26' W 066°19'122.0 24.6
2018-Mar-15 22:32N 23°26' W 066°17'0 0.0
2018-Mar-15 22:30N 23°26' W 066°17'1 1.9 24.6
2018-Mar-15 21:48N 23°28' W 066°17'0 0.0 24.6
2018-Mar-15 20:50N 23°28' W 066°17'0 0.0 24.6
2018-Mar-15 20:44N 23°28' W 066°17'0 0.0
2018-Mar-15 20:14N 23°28' W 066°17'111.0
2018-Mar-15 20:11N 23°28' W 066°16'124.0 24.6
2018-Mar-15 20:08N 23°29' W 066°16'0 0.0 24.6
2018-Mar-15 18:33N 23°29' W 066°16'3 1.1 24.6
2018-Mar-15 15:42N 23°32' W 066°16'1 1.1 24.6
2018-Mar-15 14:57N 23°32' W 066°16'1 1.5
2018-Mar-15 14:06N 23°33' W 066°17'1 3.7 24.5
2018-Mar-15 13:57N 23°33' W 066°17'0 0.0 24.5
2018-Mar-15 13:23N 23°33' W 066°17'0 0.0 24.5
2018-Mar-15 13:18N 23°33' W 066°17'1 6.0 24.5
2018-Mar-15 13:12N 23°34' W 066°17'0 0.0 24.5
2018-Mar-15 12:59N 23°34' W 066°17'1 1.3 24.5
2018-Mar-15 12:22N 23°33' W 066°17'0 0.0 24.5
2018-Mar-15 12:19N 23°33' W 066°17'0 0.0 24.5
2018-Mar-15 11:46N 23°33' W 066°17'0 0.0 24.5
2018-Mar-15 11:39N 23°33' W 066°17'0 0.0 24.5
2018-Mar-15 11:33N 23°33' W 066°17'0 0.0 24.5
2018-Mar-15 11:19N 23°33' W 066°17'1 1.0 24.5
2018-Mar-15 10:30N 23°32' W 066°18'0 0.0
2018-Mar-15 10:10N 23°32' W 066°18'0 0.0 24.5
2018-Mar-15 10:03N 23°32' W 066°18'0 0.0 24.5
2018-Mar-15 09:39N 23°32' W 066°18'0 0.0
2018-Mar-15 08:58N 23°32' W 066°18'0 0.0
2018-Mar-15 08:52N 23°32' W 066°18'111.0 24.5
2018-Mar-15 08:49N 23°32' W 066°17'1 1.7
2018-Mar-15 08:30N 23°32' W 066°18'1 0.5 24.5
2018-Mar-15 07:13N 23°32' W 066°18'224.0 24.5
2018-Mar-15 07:07N 23°29' W 066°18'0 0.0 24.5
2018-Mar-15 03:18N 23°29' W 066°18'0 0.0 24.5
2018-Mar-15 03:15N 23°29' W 066°18'0 0.0 24.5
2018-Mar-15 02:39N 23°29' W 066°18'1 3.7 24.6
2018-Mar-15 02:30N 23°29' W 066°17'0 0.0 24.6
2018-Mar-15 01:40N 23°29' W 066°17'1 9.0 24.6
2018-Mar-15 01:36N 23°29' W 066°17'0 0.0 24.6
2018-Mar-15 00:58N 23°29' W 066°17'0 0.0
2018-Mar-15 00:57N 23°29' W 066°17'0 0.0 24.6
2018-Mar-15 00:51N 23°29' W 066°17'0 0.0 24.6
2018-Mar-15 00:34N 23°29' W 066°17'0 0.0 24.6
2018-Mar-14 23:58N 23°29' W 066°17'0 0.0 24.6
2018-Mar-14 23:54N 23°29' W 066°17'0 0.0 24.6
2018-Mar-14 23:07N 23°29' W 066°17'0 0.0 24.6
2018-Mar-14 23:04N 23°29' W 066°17'0 0.0
2018-Mar-14 23:03N 23°29' W 066°17'1 6.8 24.6
2018-Mar-14 22:52N 23°28' W 066°19'232.6 24.6
2018-Mar-14 22:49N 23°27' W 066°17'0 0.0 24.6
2018-Mar-14 21:22N 23°27' W 066°17'0 0.0 24.6
2018-Mar-14 21:16N 23°27' W 066°17'1 5.5 24.6
2018-Mar-14 21:10N 23°27' W 066°17'0 0.0 24.6
2018-Mar-14 20:22N 23°27' W 066°17'0 0.0 24.7
2018-Mar-14 20:19N 23°27' W 066°17'1 0.8 24.7
2018-Mar-14 18:45N 23°26' W 066°17'1 8.8 24.7
2018-Mar-14 18:36N 23°25' W 066°17'0 0.0 24.7
2018-Mar-14 16:03N 23°25' W 066°17'0 0.0 24.6
2018-Mar-14 15:22N 23°25' W 066°17'0 0.0 24.6
2018-Mar-14 14:28N 23°25' W 066°17'1 8.1 24.5
2018-Mar-14 14:22N 23°24' W 066°16'0 0.0 24.5
2018-Mar-14 13:47N 23°24' W 066°16'0 0.0 24.5
2018-Mar-14 13:38N 23°24' W 066°16'1 6.0 24.5
2018-Mar-14 13:32N 23°25' W 066°16'1 5.5 24.5
2018-Mar-14 13:26N 23°25' W 066°16'0 0.0 24.5
2018-Mar-14 12:47N 23°25' W 066°16'0 0.0 24.5
2018-Mar-14 12:44N 23°25' W 066°16'1 5.5 24.5
2018-Mar-14 12:38N 23°25' W 066°15'0 0.0 24.5
2018-Mar-14 11:53N 23°25' W 066°15'0 0.0 24.5
2018-Mar-14 11:49N 23°25' W 066°15'0 0.0 24.5
2018-Mar-14 11:46N 23°25' W 066°15'0 0.0 24.5
2018-Mar-14 10:38N 23°25' W 066°15'0 0.0 24.5
2018-Mar-14 10:34N 23°25' W 066°15'1 1.8 24.5
2018-Mar-14 10:07N 23°24' W 066°14'0 0.0 24.5
2018-Mar-14 09:10N 23°24' W 066°14'0 0.0 24.4
2018-Mar-14 09:07N 23°24' W 066°14'1 3.0 24.4
2018-Mar-14 08:56N 23°24' W 066°15'111.0 24.4
2018-Mar-14 08:53N 23°24' W 066°14'0 0.0 24.4
2018-Mar-14 07:28N 23°24' W 066°14'1 6.1 24.5
2018-Mar-14 07:20N 23°23' W 066°14'0 0.0 24.5
2018-Mar-14 02:59N 23°23' W 066°14'1 3.6 24.5
2018-Mar-14 02:49N 23°23' W 066°14'0 0.0 24.5
2018-Mar-14 02:02N 23°23' W 066°14'1 5.5 24.5
2018-Mar-14 01:56N 23°23' W 066°13'0 0.0 24.5
2018-Mar-14 01:11N 23°23' W 066°13'0 0.0 24.5
2018-Mar-14 01:04N 23°23' W 066°13'0 0.0 24.5
2018-Mar-14 00:22N 23°23' W 066°13'0 0.0 24.5
2018-Mar-14 00:16N 23°23' W 066°13'0 0.0 24.5
2018-Mar-13 23:34N 23°23' W 066°13'0 0.0 24.5
2018-Mar-13 23:25N 23°23' W 066°13'1 4.1 24.5
2018-Mar-13 23:17N 23°23' W 066°13'1 0.4 24.5
2018-Mar-13 21:52N 23°23' W 066°13'1 4.1 24.7
2018-Mar-13 21:44N 23°23' W 066°13'0 0.0 24.7
2018-Mar-13 21:38N 23°23' W 066°13'1 0.6 24.7
2018-Mar-13 20:37N 23°22' W 066°13'0 0.0
2018-Mar-13 20:35N 23°22' W 066°13'0 0.0 24.8
2018-Mar-13 20:29N 23°22' W 066°13'1 0.4 24.8
2018-Mar-13 18:58N 23°22' W 066°13'0 0.0 24.8
2018-Mar-13 18:52N 23°22' W 066°13'1 0.3 24.8
2018-Mar-13 15:41N 23°22' W 066°13'1 1.0 24.8
2018-Mar-13 14:50N 23°21' W 066°13'0 0.0 24.7
2018-Mar-13 14:49N 23°21' W 066°13'0 0.0 24.7
2018-Mar-13 14:44N 23°21' W 066°13'   24.7

Dump ship's entire track history